^^
Grace C. Lehan Memorial Weather Station Historical Data
Daily Summary for June 1, 2021 Units:  Metric    English   Both
Daily Weekly Monthly Yearly
  High: Low: Average:
Temperature: 9.3 °C 0.8 °C 4.8 °C
Dew Point: 1.6 °C -1.5 °C -0.3 °C
Humidity: 89% 48.6% 71%
Wind Speed: 13.5km/h 0km/h 1.6km/h
Wind Gust: 30.6km/h - -
Wind- - West
Pressure: 1019.9 hPa 1012.1 hPa -
Precipitation: 0 mm    
 
 
Tabular Data for June 1, 2021
Time Temperature Dew Point Pressure Wind Wind Speed Wind Gust Humidity Rainfall Rate (Hourly) solar
00:04 2.1 °C -0.5 °C 1012.1 hPa Calm   4.8 km/h 83% 0 mm 0 W/m2
00:09 2.1 °C -0.5 °C 1012.1 hPa Calm     83% 0 mm 0 W/m2
00:14 2 °C -0.6 °C 1012.1 hPa Calm     83% 0 mm 0 W/m2
00:19 2 °C -0.6 °C 1012.1 hPa Calm     83% 0 mm 0 W/m2
00:24 1.9 °C -0.6 °C 1012.1 hPa Calm     83.5% 0 mm 0 W/m2
00:29 2 °C -0.4 °C 1012.1 hPa Calm     84% 0 mm 0 W/m2
00:34 2 °C -0.4 °C 1012.4 hPa Calm     84% 0 mm 0 W/m2
00:39 2 °C -0.4 °C 1012.4 hPa SW 0.3 km/h 4.8 km/h 84% 0 mm 0 W/m2
00:44 2.1 °C -0.4 °C 1012.1 hPa SW 0.3 km/h 4.8 km/h 84% 0 mm 0 W/m2
00:49 2.1 °C -0.3 °C 1012.1 hPa Calm   4.8 km/h 84% 0 mm 0 W/m2
00:54 2.1 °C -0.3 °C 1012.4 hPa SW 0.6 km/h 6.4 km/h 84% 0 mm 0 W/m2
00:59 2.2 °C -0.3 °C 1012.8 hPa SW 1.1 km/h 8 km/h 84% 0 mm 0 W/m2
01:04 2.2 °C -0.2 °C 1012.8 hPa WSW 1 km/h 8 km/h 84% 0 mm 0 W/m2
01:09 2.3 °C -0.1 °C 1012.8 hPa WSW 1.3 km/h 8 km/h 84% 0 mm 0 W/m2
01:14 2.4 °C 0 °C 1012.8 hPa SW 2.1 km/h 9.7 km/h 84% 0 mm 0 W/m2
01:19 2.5 °C -0.1 °C 1012.8 hPa SW 4.5 km/h 17.7 km/h 83.4% 0 mm 0 W/m2
01:24 2.6 °C -0.1 °C 1013.1 hPa SW 0.8 km/h 17.7 km/h 83% 0 mm 0 W/m2
01:29 2.6 °C 0 °C 1013.1 hPa SW 0.3 km/h 17.7 km/h 83% 0 mm 0 W/m2
01:34 2.6 °C -0.1 °C 1013.1 hPa SW 0.3 km/h 17.7 km/h 82.6% 0 mm 0 W/m2
01:39 2.6 °C -0.2 °C 1013.1 hPa SW 1.9 km/h 11.3 km/h 82% 0 mm 0 W/m2
01:44 2.6 °C -0.2 °C 1013.1 hPa WSW 1.4 km/h 14.5 km/h 82% 0 mm 0 W/m2
01:49 2.5 °C -0.2 °C 1013.4 hPa WSW 1.9 km/h 14.5 km/h 82% 0 mm 0 W/m2
01:54 2.4 °C -0.3 °C 1013.4 hPa WSW 1.4 km/h 14.5 km/h 82% 0 mm 0 W/m2
01:59 2.4 °C -0.3 °C 1013.4 hPa WSW 0.8 km/h 14.5 km/h 82% 0 mm 0 W/m2
02:04 2.4 °C -0.3 °C 1013.4 hPa WSW 0.5 km/h 14.5 km/h 82% 0 mm 0 W/m2
02:09 2.4 °C -0.2 °C 1013.4 hPa WSW 0.8 km/h 9.7 km/h 82.7% 0 mm 0 W/m2
02:14 2.4 °C -0.2 °C 1013.8 hPa WSW 1.6 km/h 11.3 km/h 83% 0 mm 0 W/m2
02:19 2.4 °C -0.2 °C 1013.8 hPa SW 2.1 km/h 14.5 km/h 83% 0 mm 0 W/m2
02:24 2.4 °C -0.2 °C 1013.4 hPa WSW 1.3 km/h 17.7 km/h 83% 0 mm 0 W/m2
02:29 2.4 °C -0.2 °C 1013.8 hPa WSW 1.1 km/h 17.7 km/h 83% 0 mm 0 W/m2
02:34 2.4 °C -0.2 °C 1013.8 hPa WSW 0.3 km/h 17.7 km/h 83% 0 mm 0 W/m2
02:39 2.4 °C -0.2 °C 1013.8 hPa WSW 0.8 km/h 9.7 km/h 83% 0 mm 0 W/m2
02:44 2.4 °C -0.2 °C 1013.8 hPa WSW 1.6 km/h 9.7 km/h 83% 0 mm 0 W/m2
02:49 2.4 °C -0.2 °C 1013.8 hPa WSW 0.5 km/h 9.7 km/h 83% 0 mm 0 W/m2
02:54 2.4 °C -0.2 °C 1013.8 hPa SW 1.4 km/h 9.7 km/h 83% 0 mm 0 W/m2
02:59 2.3 °C -0.3 °C 1013.8 hPa SW 0.2 km/h 9.7 km/h 83% 0 mm 0 W/m2
03:04 2.3 °C -0.3 °C 1013.8 hPa SW 0.6 km/h 14.5 km/h 83% 0 mm 0 W/m2
03:09 2.2 °C -0.4 °C 1014.1 hPa SW 1 km/h 14.5 km/h 83% 0 mm 0 W/m2
03:14 2.2 °C -0.3 °C 1014.1 hPa WSW 2.4 km/h 16.1 km/h 83.7% 0 mm 0 W/m2
03:19 2.1 °C -0.3 °C 1014.1 hPa West 0.8 km/h 16.1 km/h 84% 0 mm 0 W/m2
03:24 2.1 °C -0.3 °C 1014.1 hPa WSW 0.8 km/h 16.1 km/h 84% 0 mm 0 W/m2
03:29 2 °C -0.4 °C 1014.1 hPa WSW 0.2 km/h 16.1 km/h 84% 0 mm 0 W/m2
03:34 2 °C -0.4 °C 1014.1 hPa WSW 0.2 km/h 16.1 km/h 84% 0 mm 0 W/m2
03:39 1.9 °C -0.5 °C 1014.1 hPa Calm   3.2 km/h 84% 0 mm 0 W/m2
03:44 1.9 °C -0.6 °C 1014.4 hPa WSW 0.6 km/h 4.8 km/h 84% 0 mm 0 W/m2
03:49 1.8 °C -0.6 °C 1014.4 hPa WSW 2.9 km/h 9.7 km/h 84% 0 mm 0 W/m2
03:54 1.8 °C -0.5 °C 1014.4 hPa Calm   9.7 km/h 85% 0 mm 0 W/m2
03:59 1.7 °C -0.6 °C 1014.4 hPa WSW 1.3 km/h 16.1 km/h 85% 0 mm 0 W/m2
04:09 1.6 °C -0.6 °C 1014.8 hPa SW 0.2 km/h 3.2 km/h 85.3% 0 mm 0 W/m2
04:14 1.6 °C -0.6 °C 1014.8 hPa Calm   3.2 km/h 85.5% 0 mm 0 W/m2
04:19 1.6 °C -0.6 °C 1014.8 hPa Calm   3.2 km/h 86% 0 mm 0 W/m2
04:24 1.5 °C -0.6 °C 1015.1 hPa Calm   3.2 km/h 86% 0 mm 0 W/m2
04:29 1.4 °C -0.7 °C 1015.1 hPa Calm   3.2 km/h 86% 0 mm 0 W/m2
04:34 1.2 °C -0.9 °C 1015.1 hPa Calm   3.2 km/h 86% 0 mm 0 W/m2
04:39 1 °C -1.1 °C 1015.1 hPa Calm     86% 0 mm 0 W/m2
04:44 0.9 °C -1.2 °C 1015.1 hPa Calm     86% 0 mm 0 W/m2
04:49 0.8 °C -1.1 °C 1015.1 hPa Calm     86.7% 0 mm 0 W/m2
04:54 0.8 °C -1.1 °C 1015.1 hPa Calm     87% 0 mm 0 W/m2
04:59 0.8 °C -1 °C 1015.1 hPa Calm     87.4% 0 mm 0 W/m2
05:04 0.9 °C -0.9 °C 1015.5 hPa Calm     88% 0 mm 0 W/m2
05:09 0.9 °C -0.9 °C 1015.5 hPa Calm     88% 0 mm 0 W/m2
05:14 0.9 °C -0.8 °C 1015.5 hPa SW 0.5 km/h 4.8 km/h 88% 0 mm 0 W/m2
05:19 0.9 °C -0.8 °C 1015.8 hPa Calm   4.8 km/h 88% 0 mm 0 W/m2
05:24 0.9 °C -0.8 °C 1015.8 hPa Calm   4.8 km/h 88% 0 mm 0 W/m2
05:29 0.9 °C -0.9 °C 1015.8 hPa Calm   4.8 km/h 88% 0 mm 0 W/m2
05:34 0.8 °C -0.9 °C 1015.8 hPa Calm   4.8 km/h 88% 0 mm 0 W/m2
05:39 0.8 °C -0.9 °C 1016.1 hPa Calm     88% 0 mm 0 W/m2
05:44 0.8 °C -0.9 °C 1016.1 hPa Calm     88% 0 mm 0 W/m2
05:49 0.8 °C -0.9 °C 1016.1 hPa Calm     88.1% 0 mm 0 W/m2
05:54 0.9 °C -0.7 °C 1016.1 hPa Calm     89% 0 mm 0 W/m2
05:59 1 °C -0.6 °C 1016.1 hPa Calm     89% 0 mm 0 W/m2
06:04 1.1 °C -0.6 °C 1016.5 hPa Calm     89% 0 mm 0 W/m2
06:09 1.1 °C -0.4 °C 1016.5 hPa Calm     89% 0 mm 0 W/m2
06:14 1.2 °C -0.5 °C 1016.5 hPa Calm     88.2% 0 mm 0 W/m2
06:19 1.3 °C -0.5 °C 1016.8 hPa Calm   1.6 km/h 88% 0 mm 0 W/m2
06:24 1.3 °C -0.4 °C 1016.8 hPa Calm   1.6 km/h 88% 0 mm 0 W/m2
06:29 1.4 °C -0.3 °C 1016.8 hPa Calm   1.6 km/h 88% 0 mm 0 W/m2
06:34 1.4 °C -0.3 °C 1016.8 hPa Calm   1.6 km/h 88% 0 mm 0 W/m2
06:39 1.6 °C -0.3 °C 1016.8 hPa Calm     87.6% 0 mm 0 W/m2
06:44 1.6 °C -0.3 °C 1017.2 hPa SW 0.6 km/h 3.2 km/h 87% 0 mm 0 W/m2
06:49 1.7 °C -0.2 °C 1017.2 hPa Calm   3.2 km/h 87% 0 mm 0 W/m2
06:54 1.7 °C -0.3 °C 1017.5 hPa Calm   3.2 km/h 86.3% 0 mm 5 W/m2
06:59 1.7 °C -0.4 °C 1017.5 hPa Calm   3.2 km/h 86% 0 mm 5 W/m2
07:04 1.6 °C -0.4 °C 1017.8 hPa Calm   3.2 km/h 86% 0 mm 11 W/m2
07:09 1.6 °C -0.5 °C 1017.8 hPa Calm     86% 0 mm 14 W/m2
07:14 1.6 °C -0.5 °C 1018.2 hPa Calm     86% 0 mm 18 W/m2
07:19 1.6 °C -0.6 °C 1018.2 hPa SW 0.2 km/h 4.8 km/h 86% 0 mm 19 W/m2
07:24 1.5 °C -0.4 °C 1018.2 hPa Calm   4.8 km/h 86.8% 0 mm 21 W/m2
07:29 1.5 °C -0.4 °C 1018.2 hPa Calm   4.8 km/h 87% 0 mm 23 W/m2
07:34 1.5 °C -0.4 °C 1017.8 hPa Calm   4.8 km/h 87% 0 mm 32 W/m2
07:39 1.5 °C -0.4 °C 1017.8 hPa SW 0.2 km/h 4.8 km/h 87% 0 mm 56 W/m2
07:44 1.6 °C -0.3 °C 1017.8 hPa Calm   4.8 km/h 87.2% 0 mm 84 W/m2
07:49 1.8 °C 0.1 °C 1017.8 hPa WSW 0.5 km/h 4.8 km/h 88% 0 mm 95 W/m2
07:54 2.1 °C 0.3 °C 1018.2 hPa WSW 1.9 km/h 11.3 km/h 87.7% 0 mm 100 W/m2
07:59 2.4 °C 0.5 °C 1018.2 hPa WSW 1.1 km/h 11.3 km/h 86.8% 0 mm 137 W/m2
08:00 2.7 °C 0.6 °C 1018.2 hPa Calm   11.3 km/h 86% 0 mm 137 W/m2
08:09 3.3 °C 0.9 °C 1018.2 hPa WSW 1.4 km/h 11.3 km/h 84.8% 0 mm 158 W/m2
08:14 3.7 °C 1.1 °C 1018.2 hPa WSW 0.2 km/h 11.3 km/h 83.4% 0 mm 181 W/m2
08:19 4.1 °C 1.3 °C 1018.2 hPa WSW 0.2 km/h 11.3 km/h 82.1% 0 mm 204 W/m2
08:24 4.5 °C 1.4 °C 1018.2 hPa Calm   11.3 km/h 80.5% 0 mm 207 W/m2
08:29 4.9 °C 1.4 °C 1018.5 hPa WSW 0.3 km/h 11.3 km/h 78.4% 0 mm 218 W/m2
08:34 5.2 °C 1.6 °C 1018.5 hPa WSW 1.6 km/h 11.3 km/h 77.3% 0 mm 236 W/m2
08:39 5.6 °C 1.6 °C 1018.5 hPa WSW 1.3 km/h 6.4 km/h 75.8% 0 mm 221 W/m2
08:44 5.8 °C 1.4 °C 1018.5 hPa WSW 2.6 km/h 11.3 km/h 73.6% 0 mm 227 W/m2
08:49 6 °C 1.5 °C 1018.5 hPa WSW 1 km/h 11.3 km/h 72.9% 0 mm 200 W/m2
08:54 6.1 °C 1.3 °C 1018.8 hPa WSW 0.8 km/h 11.3 km/h 71.6% 0 mm 155 W/m2
08:59 6.1 °C 1.3 °C 1018.8 hPa WSW 1 km/h 11.3 km/h 71.2% 0 mm 155 W/m2
09:04 6.1 °C 1.3 °C 1018.8 hPa West 1.8 km/h 11.3 km/h 71.5% 0 mm 162 W/m2
09:09 6.1 °C 1.2 °C 1019.2 hPa West 1.1 km/h 11.3 km/h 71% 0 mm 179 W/m2
09:14 6.1 °C 1.2 °C 1019.2 hPa WSW 1.9 km/h 11.3 km/h 70.7% 0 mm 98 W/m2
09:19 6.1 °C 1 °C 1019.2 hPa WSW 1.1 km/h 11.3 km/h 70% 0 mm 90 W/m2
09:24 5.9 °C 1.1 °C 1019.2 hPa WSW 0.2 km/h 11.3 km/h 70.7% 0 mm 120 W/m2
09:29 5.9 °C 1 °C 1019.2 hPa WSW 2.1 km/h 11.3 km/h 71% 0 mm 162 W/m2
09:34 5.8 °C 1.1 °C 1019.2 hPa WSW 2.9 km/h 11.3 km/h 71.3% 0 mm 209 W/m2
09:39 6 °C 1.2 °C 1019.2 hPa WSW 1 km/h 8 km/h 71.1% 0 mm 209 W/m2
09:44 6.1 °C 1.3 °C 1019.2 hPa WSW 0.6 km/h 8 km/h 71% 0 mm 155 W/m2
09:49 6.3 °C 1.3 °C 1019.2 hPa WSW 2.7 km/h 8 km/h 70.4% 0 mm 172 W/m2
09:54 6.5 °C 1.2 °C 1019.2 hPa West 0.6 km/h 8 km/h 69.1% 0 mm 207 W/m2
09:59 6.7 °C 1.2 °C 1019.2 hPa WSW 1.4 km/h 8 km/h 68.1% 0 mm 262 W/m2
10:04 6.9 °C 1.2 °C 1019.2 hPa WSW 1.6 km/h 9.7 km/h 67.1% 0 mm 229 W/m2
10:09 7.1 °C 1.4 °C 1019.2 hPa WSW 1.4 km/h 11.3 km/h 67.2% 0 mm 207 W/m2
10:14 7.2 °C 1.1 °C 1019.2 hPa West 2.4 km/h 14.5 km/h 65.1% 0 mm 185 W/m2
10:19 7.3 °C 1.2 °C 1019.2 hPa West 0.2 km/h 14.5 km/h 65% 0 mm 149 W/m2
10:24 7.3 °C 1.2 °C 1019.2 hPa Calm   14.5 km/h 65% 0 mm 135 W/m2
10:29 7.3 °C 1.2 °C 1019.2 hPa West 1.9 km/h 14.5 km/h 65% 0 mm 139 W/m2
10:34 7.3 °C 0.8 °C 1019.2 hPa West 0.5 km/h 14.5 km/h 63.6% 0 mm 160 W/m2
10:39 7.3 °C 0.8 °C 1018.8 hPa WSW 2.3 km/h 8 km/h 63.7% 0 mm 174 W/m2
10:44 7.2 °C 0.8 °C 1018.8 hPa Calm   8 km/h 63.7% 0 mm 181 W/m2
10:49 7.3 °C 1 °C 1018.8 hPa WSW 0.3 km/h 8 km/h 64.3% 0 mm 202 W/m2
10:54 7.4 °C 0.9 °C 1018.8 hPa West 1.3 km/h 8 km/h 63.7% 0 mm 253 W/m2
10:59 7.6 °C 1.1 °C 1018.8 hPa West 1.4 km/h 8 km/h 63.5% 0 mm 267 W/m2
11:04 7.8 °C 1.4 °C 1018.8 hPa WNW 1.3 km/h 8 km/h 63.7% 0 mm 244 W/m2
11:09 8.2 °C 0.9 °C 1018.5 hPa West 3.9 km/h 12.9 km/h 60.5% 0 mm 220 W/m2
11:14 8.4 °C 0.7 °C 1018.5 hPa West 4.3 km/h 16.1 km/h 58.3% 0 mm 218 W/m2
11:19 8.6 °C 0.7 °C 1018.5 hPa West 4.2 km/h 16.1 km/h 57.6% 0 mm 250 W/m2
11:24 8.8 °C 0.3 °C 1018.5 hPa West 7.6 km/h 22.5 km/h 55.3% 0 mm 260 W/m2
11:29 8.8 °C 0.1 °C 1018.5 hPa WNW 5.1 km/h 22.5 km/h 54.3% 0 mm 225 W/m2
11:34 8.8 °C 0.3 °C 1018.5 hPa WNW 4.2 km/h 22.5 km/h 54.9% 0 mm 274 W/m2
11:39 8.8 °C -0.1 °C 1018.5 hPa WNW 5 km/h 14.5 km/h 53.6% 0 mm 288 W/m2
11:44 8.9 °C -0.2 °C 1018.5 hPa WNW 6.4 km/h 19.3 km/h 52.8% 0 mm 279 W/m2
11:49 8.8 °C -0.5 °C 1018.5 hPa WNW 12.2 km/h 27.4 km/h 52% 0 mm 306 W/m2
11:54 8.7 °C -0.6 °C 1018.5 hPa West 6.8 km/h 27.4 km/h 52.1% 0 mm 406 W/m2
11:59 8.8 °C -0.7 °C 1018.5 hPa West 5.8 km/h 27.4 km/h 51.3% 0 mm 302 W/m2
12:00 8.9 °C -0.7 °C 1018.5 hPa WNW 4.8 km/h 27.4 km/h 51% 0 mm 302 W/m2
12:09 9.1 °C -1.2 °C 1018.5 hPa WNW 11.4 km/h 29 km/h 48.6% 0 mm 355 W/m2
12:14 9 °C -1.1 °C 1018.5 hPa WNW 7.4 km/h 29 km/h 49% 0 mm 357 W/m2
12:19 9 °C -1.1 °C 1018.5 hPa WNW 6.4 km/h 29 km/h 49.1% 0 mm 199 W/m2
12:24 9.1 °C -1.1 °C 1018.8 hPa WNW 7.2 km/h 29 km/h 49.2% 0 mm 213 W/m2
12:29 9.1 °C -1.1 °C 1018.8 hPa WNW 7.7 km/h 29 km/h 49% 0 mm 251 W/m2
12:34 9.2 °C -1 °C 1018.8 hPa WNW 13.5 km/h 30.6 km/h 49% 0 mm 258 W/m2
12:39 9.1 °C -1.1 °C 1018.8 hPa WNW 6.4 km/h 27.4 km/h 49.2% 0 mm 236 W/m2
12:44 9 °C -0.8 °C 1018.8 hPa West 2.7 km/h 27.4 km/h 50.4% 0 mm 234 W/m2
12:49 9 °C -0.9 °C 1018.5 hPa West 4.5 km/h 27.4 km/h 49.9% 0 mm 234 W/m2
12:54 9 °C -0.9 °C 1018.8 hPa WNW 6.6 km/h 27.4 km/h 49.6% 0 mm 204 W/m2
12:59 9.1 °C -0.8 °C 1018.8 hPa WNW 6.4 km/h 27.4 km/h 50% 0 mm 211 W/m2
13:04 9 °C -0.8 °C 1018.8 hPa WNW 6.3 km/h 27.4 km/h 50% 0 mm 200 W/m2
13:09 8.9 °C -0.9 °C 1018.8 hPa WNW 7.4 km/h 20.9 km/h 50.1% 0 mm 179 W/m2
13:14 8.8 °C -0.8 °C 1018.8 hPa WNW 6.9 km/h 20.9 km/h 50.8% 0 mm 174 W/m2
13:19 8.8 °C -0.8 °C 1018.8 hPa WNW 2.7 km/h 20.9 km/h 51.1% 0 mm 158 W/m2
13:24 8.8 °C -0.7 °C 1018.8 hPa WNW 3.4 km/h 20.9 km/h 51.3% 0 mm 146 W/m2
13:29 8.8 °C -0.4 °C 1018.8 hPa WNW 7.2 km/h 20.9 km/h 52.3% 0 mm 142 W/m2
13:34 8.8 °C -0.7 °C 1018.8 hPa NW 4.5 km/h 20.9 km/h 51.5% 0 mm 183 W/m2
13:39 8.8 °C -0.6 °C 1018.8 hPa WNW 3.2 km/h 16.1 km/h 51.7% 0 mm 223 W/m2
13:44 8.8 °C -0.6 °C 1018.8 hPa WNW 4.8 km/h 17.7 km/h 51.6% 0 mm 202 W/m2
13:49 8.8 °C -0.7 °C 1018.8 hPa West 4.8 km/h 17.7 km/h 51.1% 0 mm 327 W/m2
13:54 9 °C -0.3 °C 1018.8 hPa WSW 1.9 km/h 17.7 km/h 52.2% 0 mm 248 W/m2
13:59 9.2 °C -0.4 °C 1018.8 hPa West 2.6 km/h 17.7 km/h 50.9% 0 mm 142 W/m2
14:04 9.3 °C -0.6 °C 1018.8 hPa WNW 6.3 km/h 20.9 km/h 50% 0 mm 134 W/m2
14:09 9.2 °C -0.7 °C 1018.8 hPa WSW 3.2 km/h 20.9 km/h 50% 0 mm 179 W/m2
14:14 9.1 °C -0.7 °C 1018.8 hPa WSW 2.7 km/h 20.9 km/h 50% 0 mm 113 W/m2
14:19 9.1 °C -0.6 °C 1018.8 hPa WSW 2.7 km/h 20.9 km/h 51% 0 mm 81 W/m2
14:24 9.1 °C -0.6 °C 1018.8 hPa WSW 2.3 km/h 20.9 km/h 51% 0 mm 81 W/m2
14:29 9 °C -0.5 °C 1018.8 hPa West 0.8 km/h 20.9 km/h 51.3% 0 mm 81 W/m2
14:34 8.9 °C -0.5 °C 1018.8 hPa WNW 2.7 km/h 20.9 km/h 51.5% 0 mm 65 W/m2
14:39 8.8 °C -0.8 °C 1018.8 hPa WNW 3.5 km/h 16.1 km/h 51% 0 mm 44 W/m2
14:44 8.7 °C -0.7 °C 1018.8 hPa West 0.5 km/h 16.1 km/h 51.7% 0 mm 37 W/m2
14:49 8.6 °C -0.7 °C 1018.8 hPa West 1.3 km/h 16.1 km/h 52% 0 mm 32 W/m2
14:54 8.5 °C -0.8 °C 1018.8 hPa West 2.3 km/h 16.1 km/h 52% 0 mm 28 W/m2
14:59 8.4 °C -0.9 °C 1018.8 hPa WNW 3.4 km/h 16.1 km/h 52% 0 mm 26 W/m2
15:04 8.2 °C -0.9 °C 1018.5 hPa WNW 0.5 km/h 16.1 km/h 52.7% 0 mm 25 W/m2
15:09 8.1 °C -0.9 °C 1018.5 hPa West 1.4 km/h 8 km/h 53% 0 mm 25 W/m2
15:14 8.1 °C -0.9 °C 1018.5 hPa West 0.3 km/h 8 km/h 53% 0 mm 28 W/m2
15:19 7.9 °C -0.8 °C 1018.5 hPa West 1.8 km/h 8 km/h 53.9% 0 mm 26 W/m2
15:24 7.8 °C -0.9 °C 1018.8 hPa West 0.2 km/h 8 km/h 54% 0 mm 19 W/m2
15:29 7.8 °C -0.9 °C 1018.8 hPa West 2.1 km/h 8 km/h 54% 0 mm 19 W/m2
15:34 7.7 °C -1 °C 1018.8 hPa Calm   8 km/h 54% 0 mm 18 W/m2
15:39 7.6 °C -1 °C 1018.8 hPa Calm   1.6 km/h 54.4% 0 mm 16 W/m2
15:44 7.5 °C -0.9 °C 1018.8 hPa West 0.5 km/h 4.8 km/h 55% 0 mm 14 W/m2
15:49 7.4 °C -1.1 °C 1018.8 hPa West 0.2 km/h 4.8 km/h 55% 0 mm 12 W/m2
15:54 7.3 °C -1.1 °C 1018.8 hPa West 0.2 km/h 4.8 km/h 55.2% 0 mm 11 W/m2
15:59 7.2 °C -1 °C 1018.8 hPa Calm   4.8 km/h 56% 0 mm 9 W/m2
16:00 7.1 °C -1.1 °C 1018.8 hPa Calm   4.8 km/h 56% 0 mm 7 W/m2
16:09 6.9 °C -1.2 °C 1018.8 hPa Calm   1.6 km/h 56.1% 0 mm 5 W/m2
16:14 6.8 °C -1.1 °C 1018.8 hPa Calm   1.6 km/h 57% 0 mm 0 W/m2
16:19 6.7 °C -1.2 °C 1018.8 hPa Calm   1.6 km/h 57% 0 mm 0 W/m2
16:24 6.6 °C -1.1 °C 1018.8 hPa Calm   1.6 km/h 57.9% 0 mm 0 W/m2
16:29 6.4 °C -1.2 °C 1018.8 hPa Calm   1.6 km/h 58% 0 mm 0 W/m2
16:34 6.3 °C -1.2 °C 1018.8 hPa Calm   1.6 km/h 58.6% 0 mm 0 W/m2
16:39 6.1 °C -1.2 °C 1018.8 hPa Calm     59.4% 0 mm 0 W/m2
16:44 5.9 °C -1.3 °C 1019.2 hPa Calm     60% 0 mm 0 W/m2
16:49 5.7 °C -1.3 °C 1019.2 hPa Calm     60.4% 0 mm 0 W/m2
16:54 5.6 °C -1.3 °C 1019.2 hPa Calm     61% 0 mm 0 W/m2
16:59 5.4 °C -1.5 °C 1019.2 hPa Calm     61% 0 mm 0 W/m2
17:04 5.3 °C -1.4 °C 1019.2 hPa Calm     62% 0 mm 0 W/m2
17:09 5.1 °C -1.4 °C 1019.5 hPa Calm     62.6% 0 mm 0 W/m2
17:14 5 °C -1.3 °C 1019.5 hPa Calm     63.8% 0 mm 0 W/m2
17:19 4.8 °C -1.4 °C 1019.5 hPa Calm     64% 0 mm 0 W/m2
17:24 4.7 °C -1.3 °C 1019.5 hPa Calm     64.9% 0 mm 0 W/m2
17:29 4.6 °C -1.4 °C 1019.9 hPa Calm     65.3% 0 mm 0 W/m2
17:34 4.4 °C -1.4 °C 1019.9 hPa Calm     66% 0 mm 0 W/m2
17:39 4.3 °C -1.5 °C 1019.9 hPa Calm     66% 0 mm 0 W/m2
17:44 4.1 °C -1.4 °C 1019.5 hPa Calm     67% 0 mm 0 W/m2
17:48 4 °C -1.4 °C 1019.5 hPa Calm     67.7% 0 mm 0 W/m2
Hartford County Weather
Compliments of Weather Underground - 4 mb